createdAt,value
2018-01-20T00:00:06.310Z,86.80
2018-01-20T00:01:05.960Z,86.90
2018-01-20T00:02:05.452Z,86.90
2018-01-20T00:03:05.958Z,86.80
2018-01-20T00:04:05.830Z,86.80
2018-01-20T00:05:11.461Z,86.90
2018-01-20T00:06:08.344Z,86.90
2018-01-20T00:07:08.069Z,86.90
2018-01-20T00:08:06.527Z,86.90
2018-01-20T00:09:06.303Z,86.80
2018-01-20T00:10:05.767Z,86.80
2018-01-20T00:11:06.315Z,86.80
2018-01-20T00:12:05.976Z,86.80
2018-01-20T00:13:08.008Z,86.80
2018-01-20T00:14:06.302Z,86.70
2018-01-20T00:15:06.203Z,86.80
2018-01-20T00:16:08.221Z,86.70
2018-01-20T00:17:08.169Z,86.70
2018-01-20T00:18:05.638Z,86.70
2018-01-20T00:19:08.707Z,86.70
2018-01-20T00:20:05.835Z,86.70
2018-01-20T00:21:06.633Z,86.70
2018-01-20T00:22:06.092Z,86.70
2018-01-20T00:23:08.137Z,86.70
2018-01-20T00:24:06.340Z,86.70
2018-01-20T00:25:08.901Z,86.70
2018-01-20T00:26:11.444Z,86.70
2018-01-20T00:27:10.735Z,86.70
2018-01-20T00:28:06.156Z,86.70
2018-01-20T00:29:10.743Z,86.70
2018-01-20T00:30:06.488Z,86.80
2018-01-20T00:31:10.950Z,86.80
2018-01-20T00:32:06.833Z,86.80
2018-01-20T00:33:08.880Z,86.80
2018-01-20T00:34:11.299Z,86.80
2018-01-20T00:35:08.232Z,86.80
2018-01-20T00:36:05.655Z,86.80
2018-01-20T00:37:06.367Z,86.80
2018-01-20T00:38:08.327Z,86.80
2018-01-20T00:39:08.232Z,86.80
2018-01-20T00:40:08.204Z,86.80
2018-01-20T00:41:08.102Z,86.80
2018-01-20T00:42:08.145Z,86.80
2018-01-20T00:43:05.719Z,86.80
2018-01-20T00:44:06.472Z,86.80
2018-01-20T00:45:08.386Z,86.80
2018-01-20T00:46:08.226Z,86.80
2018-01-20T00:47:10.711Z,86.80
2018-01-20T00:48:06.076Z,86.80
2018-01-20T00:49:05.707Z,86.80
2018-01-20T00:50:06.244Z,86.80
2018-01-20T00:51:10.780Z,86.90
2018-01-20T00:52:06.384Z,86.80
2018-01-20T00:53:11.320Z,86.80
2018-01-20T00:54:05.790Z,86.90
2018-01-20T00:55:06.337Z,86.80
2018-01-20T00:56:06.332Z,86.80
2018-01-20T00:57:06.591Z,86.90
2018-01-20T00:58:08.563Z,86.80
2018-01-20T00:59:06.076Z,86.80
2018-01-20T01:00:05.682Z,86.80
2018-01-20T01:01:06.378Z,86.90
2018-01-20T01:02:05.981Z,86.90
2018-01-20T01:03:05.472Z,86.80
2018-01-20T01:04:06.189Z,86.80
2018-01-20T01:05:05.789Z,86.80
2018-01-20T01:06:11.436Z,86.90
2018-01-20T01:07:08.123Z,86.80
2018-01-20T01:08:05.738Z,86.80
2018-01-20T01:09:06.240Z,86.80
2018-01-20T01:10:10.850Z,86.90
2018-01-20T01:11:06.278Z,86.80
2018-01-20T01:12:05.948Z,86.80
2018-01-20T01:13:06.444Z,86.70
2018-01-20T01:14:06.421Z,86.70
2018-01-20T01:15:05.863Z,86.70
2018-01-20T01:16:06.502Z,86.70
2018-01-20T01:17:08.713Z,86.70
2018-01-20T01:18:06.237Z,86.70
2018-01-20T01:19:05.826Z,86.70
2018-01-20T01:20:06.362Z,86.60
2018-01-20T01:21:08.419Z,86.70
2018-01-20T01:22:08.459Z,86.60
2018-01-20T01:23:05.950Z,86.60
2018-01-20T01:24:06.448Z,86.60
2018-01-20T01:25:05.997Z,86.60
2018-01-20T01:26:08.137Z,86.60
2018-01-20T01:27:06.116Z,86.60
2018-01-20T01:28:05.724Z,86.60
2018-01-20T01:29:06.377Z,86.60
2018-01-20T01:30:05.911Z,86.60
2018-01-20T01:31:06.594Z,86.60
2018-01-20T01:32:06.251Z,86.50
2018-01-20T01:33:05.746Z,86.50
2018-01-20T01:34:06.450Z,86.50
2018-01-20T01:35:08.353Z,86.60
2018-01-20T01:36:05.816Z,86.50
2018-01-20T01:37:08.977Z,86.50
2018-01-20T01:38:06.353Z,86.60
2018-01-20T01:39:08.466Z,86.50
2018-01-20T01:40:08.430Z,86.50
2018-01-20T01:41:05.735Z,86.50
2018-01-20T01:42:06.244Z,86.50
2018-01-20T01:43:05.765Z,86.50
2018-01-20T01:44:08.812Z,86.40
2018-01-20T01:45:06.222Z,86.40
2018-01-20T01:46:08.490Z,86.30
2018-01-20T01:47:08.506Z,86.30
2018-01-20T01:48:06.960Z,86.20
2018-01-20T01:49:06.536Z,86.30
2018-01-20T01:50:06.370Z,86.20
2018-01-20T01:51:06.137Z,86.30
2018-01-20T01:52:10.805Z,86.20
2018-01-20T01:53:06.172Z,86.20
2018-01-20T01:54:05.771Z,86.10
2018-01-20T01:55:06.331Z,86.10
2018-01-20T01:56:05.854Z,86.10
2018-01-20T01:57:11.353Z,86.00
2018-01-20T01:58:05.896Z,85.90
2018-01-20T01:59:11.431Z,86.00
2018-01-20T02:00:05.858Z,86.00
2018-01-20T02:01:06.470Z,86.00
2018-01-20T02:02:10.848Z,86.00
2018-01-20T02:03:06.046Z,86.00
2018-01-20T02:04:06.193Z,86.00
2018-01-20T02:05:05.717Z,86.10
2018-01-20T02:06:05.568Z,86.10
2018-01-20T02:07:08.653Z,86.10
2018-01-20T02:08:08.925Z,86.10
2018-01-20T02:09:08.812Z,86.10
2018-01-20T02:10:06.475Z,86.20
2018-01-20T02:11:06.028Z,86.20
2018-01-20T02:12:10.949Z,86.20
2018-01-20T02:13:11.438Z,86.30
2018-01-20T02:14:08.509Z,86.20
2018-01-20T02:15:05.931Z,86.30
2018-01-20T02:16:06.063Z,86.20
2018-01-20T02:17:05.673Z,86.30
2018-01-20T02:18:05.581Z,86.30
2018-01-20T02:19:08.711Z,86.30
2018-01-20T02:20:06.045Z,86.30
2018-01-20T02:21:05.580Z,86.30
2018-01-20T02:22:10.641Z,86.50
2018-01-20T02:23:05.963Z,86.30
2018-01-20T02:24:08.400Z,86.30
2018-01-20T02:25:08.090Z,86.30
2018-01-20T02:26:05.592Z,86.30
2018-01-20T02:27:08.705Z,86.20
2018-01-20T02:28:06.446Z,86.20
2018-01-20T02:29:05.994Z,86.20
2018-01-20T02:30:05.545Z,86.10
2018-01-20T02:31:06.104Z,86.10
2018-01-20T02:32:08.213Z,86.10
2018-01-20T02:33:05.581Z,86.10
2018-01-20T02:34:06.183Z,86.10
2018-01-20T02:35:06.802Z,86.10
2018-01-20T02:36:06.655Z,86.10
2018-01-20T02:37:08.748Z,86.10
2018-01-20T02:38:08.739Z,86.10
2018-01-20T02:39:06.213Z,86.10
2018-01-20T02:40:08.368Z,86.10
2018-01-20T02:41:08.308Z,86.10
2018-01-20T02:42:06.646Z,86.10
2018-01-20T02:43:08.730Z,86.10
2018-01-20T02:44:06.256Z,86.10
2018-01-20T02:45:05.722Z,86.20
2018-01-20T02:46:06.290Z,86.30
2018-01-20T02:47:05.865Z,86.20
2018-01-20T02:48:06.610Z,86.30
2018-01-20T02:49:06.082Z,86.30
2018-01-20T02:50:05.648Z,86.40
2018-01-20T02:51:06.241Z,86.30
2018-01-20T02:52:06.034Z,86.30
2018-01-20T02:53:11.438Z,86.40
2018-01-20T02:54:08.442Z,86.50
2018-01-20T02:55:08.448Z,86.70
2018-01-20T02:56:05.860Z,86.80
2018-01-20T02:57:11.396Z,87.10
2018-01-20T02:58:06.315Z,87.10
2018-01-20T02:59:13.474Z,87.30
2018-01-20T03:00:05.963Z,87.30
2018-01-20T03:01:05.496Z,87.30
2018-01-20T03:02:06.174Z,87.40
2018-01-20T03:03:05.629Z,87.50
2018-01-20T03:04:06.178Z,87.60
2018-01-20T03:05:05.975Z,87.60
2018-01-20T03:06:08.045Z,87.70
2018-01-20T03:07:08.944Z,87.70
2018-01-20T03:08:08.833Z,87.70
2018-01-20T03:09:06.198Z,87.70
2018-01-20T03:10:06.298Z,87.70
2018-01-20T03:11:06.132Z,87.70
2018-01-20T03:12:05.583Z,87.70
2018-01-20T03:13:06.104Z,87.70
2018-01-20T03:14:10.659Z,87.70
2018-01-20T03:15:06.433Z,87.70
2018-01-20T03:16:06.073Z,87.70
2018-01-20T03:17:05.582Z,87.70
2018-01-20T03:18:06.451Z,87.70
2018-01-20T03:19:08.526Z,87.70
2018-01-20T03:20:11.042Z,87.70
2018-01-20T03:21:05.641Z,87.70
2018-01-20T03:22:08.691Z,87.70
2018-01-20T03:23:05.919Z,87.70
2018-01-20T03:24:05.493Z,87.70
2018-01-20T03:25:08.670Z,87.70
2018-01-20T03:26:06.240Z,87.80
2018-01-20T03:27:10.772Z,87.70
2018-01-20T03:28:11.242Z,87.70
2018-01-20T03:29:10.687Z,87.70
2018-01-20T03:30:06.384Z,87.70
2018-01-20T03:31:08.565Z,87.80
2018-01-20T03:32:06.022Z,87.70
2018-01-20T03:33:10.729Z,87.80
2018-01-20T03:34:08.663Z,87.70
2018-01-20T03:35:06.100Z,87.70
2018-01-20T03:36:05.830Z,87.70
2018-01-20T03:37:06.461Z,87.70
2018-01-20T03:38:08.470Z,87.80
2018-01-20T03:39:06.165Z,87.80
2018-01-20T03:40:10.714Z,87.90
2018-01-20T03:41:06.105Z,87.90
2018-01-20T03:42:10.763Z,88.00
2018-01-20T03:43:06.151Z,88.00
2018-01-20T03:44:10.654Z,88.00
2018-01-20T03:45:11.002Z,88.00
2018-01-20T03:46:08.452Z,88.10
2018-01-20T03:47:05.987Z,87.90
2018-01-20T03:48:05.440Z,87.90
2018-01-20T03:49:11.493Z,87.80
2018-01-20T03:50:08.535Z,87.70
2018-01-20T03:51:05.874Z,87.70
2018-01-20T03:52:06.768Z,87.90
2018-01-20T03:53:06.114Z,87.70
2018-01-20T03:54:05.824Z,87.80
2018-01-20T03:55:06.297Z,87.80
2018-01-20T03:56:10.778Z,87.70
2018-01-20T03:57:06.470Z,87.70
2018-01-20T03:58:08.483Z,87.70
2018-01-20T03:59:06.217Z,87.70
2018-01-20T04:00:05.841Z,87.60
2018-01-20T04:01:08.864Z,87.70
2018-01-20T04:02:08.087Z,87.80
2018-01-20T04:03:11.298Z,87.80
2018-01-20T04:04:08.195Z,87.80
2018-01-20T04:05:05.480Z,87.70
2018-01-20T04:06:06.166Z,87.80
2018-01-20T04:07:05.712Z,87.80
2018-01-20T04:08:11.232Z,87.70
2018-01-20T04:09:10.672Z,87.80
2018-01-20T04:10:06.056Z,87.80
2018-01-20T04:11:08.147Z,87.60
2018-01-20T04:12:05.642Z,87.60
2018-01-20T04:13:06.125Z,87.60
2018-01-20T04:14:08.263Z,87.60
2018-01-20T04:15:05.849Z,87.60
2018-01-20T04:16:06.571Z,87.50
2018-01-20T04:17:08.928Z,87.60
2018-01-20T04:18:08.865Z,87.50
2018-01-20T04:19:06.410Z,87.50
2018-01-20T04:20:05.956Z,87.50
2018-01-20T04:21:10.611Z,87.50
2018-01-20T04:22:05.933Z,87.60
2018-01-20T04:23:15.553Z,87.50
2018-01-20T04:24:05.948Z,87.60
2018-01-20T04:25:10.442Z,87.50
2018-01-20T04:26:08.350Z,87.50
2018-01-20T04:27:05.694Z,87.40
2018-01-20T04:28:06.214Z,87.40
2018-01-20T04:29:05.855Z,87.40
2018-01-20T04:30:09.049Z,87.30
2018-01-20T04:31:06.101Z,87.30
2018-01-20T04:32:06.298Z,87.30
2018-01-20T04:33:06.233Z,87.30
2018-01-20T04:34:08.336Z,87.40
2018-01-20T04:35:05.684Z,87.40
2018-01-20T04:36:11.272Z,87.30
2018-01-20T04:37:08.302Z,87.40
2018-01-20T04:38:08.249Z,87.40
2018-01-20T04:39:08.262Z,87.40
2018-01-20T04:40:05.763Z,87.40
2018-01-20T04:41:06.364Z,87.40
2018-01-20T04:42:06.066Z,87.40
2018-01-20T04:43:05.478Z,87.40
2018-01-20T04:44:06.130Z,87.40
2018-01-20T04:45:05.612Z,87.40
2018-01-20T04:46:06.327Z,87.40
2018-01-20T04:47:05.866Z,87.30
2018-01-20T04:48:06.400Z,87.20
2018-01-20T04:49:08.606Z,87.20
2018-01-20T04:50:06.020Z,87.10
2018-01-20T04:51:05.608Z,87.10
2018-01-20T04:52:08.746Z,87.10
2018-01-20T04:53:08.757Z,87.20
2018-01-20T04:54:06.296Z,87.20
2018-01-20T04:55:05.837Z,87.20
2018-01-20T04:56:06.731Z,87.10
2018-01-20T04:57:08.885Z,87.20
2018-01-20T04:58:08.789Z,87.10
2018-01-20T04:59:06.105Z,87.10
2018-01-20T05:00:05.903Z,87.10
2018-01-20T05:01:09.062Z,87.00
2018-01-20T05:02:08.956Z,86.90
2018-01-20T05:03:09.017Z,86.90
2018-01-20T05:04:06.730Z,87.00
2018-01-20T05:05:08.730Z,87.10
2018-01-20T05:06:08.642Z,87.00
2018-01-20T05:07:05.981Z,87.00
2018-01-20T05:08:05.439Z,87.00
2018-01-20T05:09:08.487Z,86.80
2018-01-20T05:10:05.874Z,86.80
2018-01-20T05:11:06.479Z,86.70
2018-01-20T05:12:06.330Z,86.70
2018-01-20T05:13:13.395Z,86.70
2018-01-20T05:14:08.309Z,86.70
2018-01-20T05:15:10.700Z,86.70
2018-01-20T05:16:06.088Z,86.70
2018-01-20T05:17:06.629Z,86.60
2018-01-20T05:18:08.881Z,86.60
2018-01-20T05:19:08.792Z,86.60
2018-01-20T05:20:06.226Z,86.60
2018-01-20T05:21:05.720Z,86.60
2018-01-20T05:22:06.185Z,86.60
2018-01-20T05:23:08.344Z,86.60
2018-01-20T05:24:05.835Z,86.60
2018-01-20T05:25:06.990Z,86.60
2018-01-20T05:26:08.905Z,86.40
2018-01-20T05:27:06.522Z,86.40
2018-01-20T05:28:08.710Z,86.40
2018-01-20T05:29:06.096Z,86.40
2018-01-20T05:30:05.539Z,86.40
2018-01-20T05:31:08.572Z,86.40
2018-01-20T05:32:07.845Z,86.40
2018-01-20T05:33:06.494Z,86.40
2018-01-20T05:34:06.170Z,86.40
2018-01-20T05:35:06.054Z,86.40
2018-01-20T05:36:05.666Z,86.40
2018-01-20T05:37:06.338Z,86.40
2018-01-20T05:38:05.874Z,86.40
2018-01-20T05:39:11.458Z,86.40
2018-01-20T05:40:10.760Z,86.40
2018-01-20T05:41:08.701Z,86.40
2018-01-20T05:42:08.728Z,86.40
2018-01-20T05:43:11.180Z,86.40
2018-01-20T05:44:05.742Z,86.40
2018-01-20T05:45:06.366Z,86.40
2018-01-20T05:46:05.865Z,86.40
2018-01-20T05:47:05.413Z,86.40
2018-01-20T05:48:06.488Z,86.30
2018-01-20T05:49:06.076Z,86.30
2018-01-20T05:50:05.744Z,86.30
2018-01-20T05:51:06.135Z,86.20
2018-01-20T05:52:10.708Z,86.20
2018-01-20T05:53:05.992Z,86.20
2018-01-20T05:54:05.729Z,86.10
2018-01-20T05:55:06.429Z,86.10
2018-01-20T05:56:08.539Z,86.10
2018-01-20T05:57:08.162Z,86.10
2018-01-20T05:58:10.527Z,86.10
2018-01-20T05:59:08.373Z,86.10
2018-01-20T06:00:05.779Z,86.10
2018-01-20T06:01:06.635Z,86.10
2018-01-20T06:02:08.693Z,86.00
2018-01-20T06:03:08.517Z,86.00
2018-01-20T06:04:06.237Z,86.00
2018-01-20T06:05:13.273Z,86.00
2018-01-20T06:06:10.617Z,86.00
2018-01-20T06:07:11.139Z,85.90
2018-01-20T06:08:06.461Z,86.00
2018-01-20T06:09:08.523Z,86.00
2018-01-20T06:10:08.374Z,85.90
2018-01-20T06:11:06.181Z,85.90
2018-01-20T06:12:05.815Z,86.00
2018-01-20T06:13:06.337Z,86.00
2018-01-20T06:14:06.439Z,86.00
2018-01-20T06:15:08.426Z,86.10
2018-01-20T06:16:05.808Z,86.10
2018-01-20T06:17:06.370Z,86.10
2018-01-20T06:18:05.847Z,86.10
2018-01-20T06:19:09.092Z,86.20
2018-01-20T06:20:05.979Z,86.20
2018-01-20T06:21:05.505Z,86.20
2018-01-20T06:22:08.599Z,86.40
2018-01-20T06:23:08.496Z,86.50
2018-01-20T06:24:08.484Z,86.60
2018-01-20T06:25:06.096Z,86.70
2018-01-20T06:26:05.909Z,86.70
2018-01-20T06:27:05.555Z,86.70
2018-01-20T06:28:06.447Z,86.80
2018-01-20T06:29:08.600Z,86.90
2018-01-20T06:30:11.167Z,86.90
2018-01-20T06:31:05.644Z,87.00
2018-01-20T06:32:11.210Z,86.90
2018-01-20T06:33:05.564Z,86.80
2018-01-20T06:34:06.390Z,86.70
2018-01-20T06:35:10.755Z,86.60
2018-01-20T06:36:06.134Z,86.60
2018-01-20T06:37:05.749Z,86.40
2018-01-20T06:38:06.357Z,86.30
2018-01-20T06:39:05.888Z,86.10
2018-01-20T06:40:06.422Z,86.10
2018-01-20T06:41:05.923Z,86.10
2018-01-20T06:42:06.419Z,86.00
2018-01-20T06:43:06.108Z,86.00
2018-01-20T06:44:08.263Z,86.10
2018-01-20T06:45:05.641Z,86.10
2018-01-20T06:46:06.273Z,86.00
2018-01-20T06:47:05.945Z,85.90
2018-01-20T06:48:06.446Z,86.00
2018-01-20T06:49:08.403Z,86.00
2018-01-20T06:50:05.963Z,86.00
2018-01-20T06:51:07.989Z,86.00
2018-01-20T06:52:11.414Z,85.90
2018-01-20T06:53:05.668Z,86.00
2018-01-20T06:54:06.381Z,86.10
2018-01-20T06:55:08.501Z,86.10
2018-01-20T06:56:05.848Z,86.00
2018-01-20T06:57:06.275Z,86.00
2018-01-20T06:58:13.448Z,86.10
2018-01-20T06:59:10.858Z,86.20
2018-01-20T07:00:08.694Z,86.20
2018-01-20T07:01:13.664Z,86.20
2018-01-20T07:02:13.763Z,86.20
2018-01-20T07:03:06.122Z,86.20
2018-01-20T07:04:10.714Z,86.10
2018-01-20T07:05:06.041Z,86.10
2018-01-20T07:06:10.552Z,86.10
2018-01-20T07:07:06.040Z,86.10
2018-01-20T07:08:05.885Z,86.10
2018-01-20T07:09:06.454Z,86.10
2018-01-20T07:10:11.034Z,86.10
2018-01-20T07:11:06.441Z,86.10
2018-01-20T07:12:05.936Z,86.10
2018-01-20T07:13:08.073Z,86.10
2018-01-20T07:14:07.950Z,86.10
2018-01-20T07:15:08.833Z,86.10
2018-01-20T07:16:06.273Z,86.10
2018-01-20T07:17:11.086Z,86.10
2018-01-20T07:18:05.440Z,86.10
2018-01-20T07:19:11.341Z,86.00
2018-01-20T07:20:08.275Z,86.10
2018-01-20T07:21:05.677Z,86.10
2018-01-20T07:22:06.401Z,86.10
2018-01-20T07:23:05.853Z,86.10
2018-01-20T07:24:08.911Z,86.20
2018-01-20T07:25:06.209Z,86.20
2018-01-20T07:26:05.742Z,86.20
2018-01-20T07:27:11.237Z,86.10
2018-01-20T07:28:05.787Z,86.10
2018-01-20T07:29:08.933Z,86.10
2018-01-20T07:30:06.380Z,86.10
2018-01-20T07:31:06.007Z,86.10
2018-01-20T07:32:05.742Z,86.10
2018-01-20T07:33:06.210Z,86.20
2018-01-20T07:34:05.778Z,86.20
2018-01-20T07:35:06.205Z,86.30
2018-01-20T07:36:05.949Z,86.40
2018-01-20T07:37:05.505Z,86.40
2018-01-20T07:38:11.373Z,86.30
2018-01-20T07:39:05.774Z,86.30
2018-01-20T07:40:12.342Z,86.20
2018-01-20T07:41:05.946Z,86.10
2018-01-20T07:42:06.533Z,86.10
2018-01-20T07:43:11.136Z,86.00
2018-01-20T07:44:13.207Z,86.00
2018-01-20T07:45:10.670Z,85.80
2018-01-20T07:46:05.633Z,85.90
2018-01-20T07:47:11.263Z,86.00
2018-01-20T07:48:05.697Z,85.80
2018-01-20T07:49:08.811Z,85.90
2018-01-20T07:50:06.178Z,85.90
2018-01-20T07:51:06.343Z,86.00
2018-01-20T07:52:10.916Z,86.10
2018-01-20T07:53:06.213Z,86.00
2018-01-20T07:54:10.784Z,86.00
2018-01-20T07:55:06.235Z,86.10
2018-01-20T07:56:06.168Z,86.10
2018-01-20T07:57:10.742Z,86.10
2018-01-20T07:58:06.380Z,86.00
2018-01-20T07:59:08.464Z,86.10
2018-01-20T08:00:05.863Z,86.20
2018-01-20T08:01:08.958Z,86.20
2018-01-20T08:02:06.305Z,86.20
2018-01-20T08:03:05.838Z,86.20
2018-01-20T08:04:08.944Z,86.20
2018-01-20T08:05:11.390Z,86.20
2018-01-20T08:06:05.941Z,86.30
2018-01-20T08:07:06.211Z,86.30
2018-01-20T08:08:05.726Z,86.30
2018-01-20T08:09:05.606Z,86.30
2018-01-20T08:10:08.972Z,86.70
2018-01-20T08:11:06.323Z,86.70
2018-01-20T08:12:05.942Z,86.80
2018-01-20T08:13:05.536Z,86.90
2018-01-20T08:14:08.885Z,87.00
2018-01-20T08:15:08.788Z,87.10
2018-01-20T08:16:13.865Z,87.20
2018-01-20T08:17:06.291Z,87.20
2018-01-20T08:18:06.772Z,87.20
2018-01-20T08:19:08.808Z,87.20
2018-01-20T08:20:11.424Z,87.20
2018-01-20T08:21:05.726Z,87.20
2018-01-20T08:22:06.288Z,87.10
2018-01-20T08:23:05.815Z,87.20
2018-01-20T08:24:06.344Z,87.10
2018-01-20T08:25:06.727Z,87.10
2018-01-20T08:26:11.272Z,86.90
2018-01-20T08:30:08.851Z,86.60
2018-01-20T08:32:05.548Z,86.40
2018-01-20T08:34:08.210Z,86.20
2018-01-20T08:35:05.694Z,86.20
2018-01-20T08:36:06.403Z,86.20
2018-01-20T08:37:05.910Z,86.20
2018-01-20T08:38:06.605Z,86.30
2018-01-20T08:39:06.192Z,86.30
2018-01-20T08:40:05.862Z,86.30
2018-01-20T08:41:11.892Z,86.30
2018-01-20T08:42:06.242Z,86.20
2018-01-20T08:43:05.773Z,86.20
2018-01-20T08:44:08.838Z,86.20
2018-01-20T08:45:06.256Z,86.20
2018-01-20T08:46:08.258Z,86.40
2018-01-20T08:47:10.661Z,86.40
2018-01-20T08:48:08.184Z,86.40
2018-01-20T08:49:05.862Z,86.40
2018-01-20T08:50:08.319Z,86.40
2018-01-20T08:51:05.861Z,86.40
2018-01-20T08:52:06.477Z,86.50
2018-01-20T08:53:06.124Z,86.40
2018-01-20T08:54:10.642Z,86.40
2018-01-20T08:55:08.555Z,86.30
2018-01-20T08:56:13.526Z,86.20
2018-01-20T08:57:10.990Z,86.20
2018-01-20T08:58:06.326Z,86.30
2018-01-20T08:59:08.334Z,86.40
2018-01-20T09:00:05.496Z,86.40
2018-01-20T09:01:08.795Z,86.40
2018-01-20T09:02:13.814Z,86.40
2018-01-20T09:03:06.388Z,86.50
2018-01-20T09:04:05.939Z,86.60
2018-01-20T09:05:10.797Z,86.70
2018-01-20T09:06:06.180Z,86.70
2018-01-20T09:07:05.844Z,86.80
2018-01-20T09:08:05.714Z,86.60
2018-01-20T09:09:06.462Z,86.60
2018-01-20T09:10:10.936Z,86.40
2018-01-20T09:11:06.238Z,86.40
2018-01-20T09:12:05.737Z,86.30
2018-01-20T09:13:06.264Z,86.30
2018-01-20T09:14:05.906Z,86.30
2018-01-20T09:15:05.734Z,86.40
2018-01-20T09:16:08.782Z,86.30
2018-01-20T09:17:11.292Z,86.20
2018-01-20T09:18:05.949Z,86.20
2018-01-20T09:19:08.044Z,86.20
2018-01-20T09:20:06.373Z,86.10
2018-01-20T09:21:09.010Z,86.00
2018-01-20T09:22:11.551Z,86.00
2018-01-20T09:23:06.022Z,86.00
2018-01-20T09:24:05.966Z,85.90
2018-01-20T09:25:06.208Z,85.90
2018-01-20T09:26:05.918Z,85.90
2018-01-20T09:27:06.592Z,85.80
2018-01-20T09:28:06.152Z,85.80
2018-01-20T09:29:15.889Z,85.40
2018-01-20T09:30:06.603Z,59.80
2018-01-20T09:31:06.003Z,85.50
2018-01-20T09:32:06.149Z,85.30
2018-01-20T09:33:05.763Z,85.20
2018-01-20T09:34:05.762Z,85.20
2018-01-20T09:35:06.308Z,85.20
2018-01-20T09:36:05.753Z,85.10
2018-01-20T09:37:08.997Z,85.00
2018-01-20T09:38:06.548Z,85.10
2018-01-20T09:39:05.939Z,85.00
2018-01-20T09:40:09.014Z,84.90
2018-01-20T09:41:11.445Z,84.90
2018-01-20T09:42:05.787Z,84.80
2018-01-20T09:43:08.779Z,84.70
2018-01-20T09:44:06.266Z,84.70
2018-01-20T09:45:05.778Z,84.60
2018-01-20T09:46:06.332Z,84.60
2018-01-20T09:47:10.909Z,84.40
2018-01-20T09:48:08.755Z,84.50
2018-01-20T09:49:08.221Z,84.20
2018-01-20T09:50:10.757Z,84.20
2018-01-20T09:51:06.105Z,84.20
2018-01-20T09:52:10.648Z,84.20
2018-01-20T09:53:08.582Z,84.00
2018-01-20T09:54:11.008Z,84.00
2018-01-20T09:55:06.492Z,84.00
2018-01-20T09:56:06.178Z,83.90
2018-01-20T09:57:05.728Z,83.50
2018-01-20T09:58:06.441Z,83.40
2018-01-20T09:59:08.562Z,83.20
2018-01-20T10:00:05.968Z,83.20
2018-01-20T10:01:10.625Z,83.20
2018-01-20T10:02:06.006Z,83.00
2018-01-20T10:03:10.580Z,83.00
2018-01-20T10:04:06.249Z,83.00
2018-01-20T10:05:06.041Z,82.90
2018-01-20T10:06:05.576Z,82.70
2018-01-20T10:07:06.389Z,82.50
2018-01-20T10:08:08.366Z,82.40
2018-01-20T10:09:10.836Z,82.50
2018-01-20T10:10:08.766Z,83.00
2018-01-20T10:11:08.814Z,82.80
2018-01-20T10:12:11.186Z,82.80
2018-01-20T10:13:05.520Z,82.80
2018-01-20T10:14:08.538Z,82.70
2018-01-20T10:15:10.916Z,82.60
2018-01-20T10:16:06.378Z,82.60
2018-01-20T10:17:08.430Z,82.50
2018-01-20T10:18:10.856Z,82.30
2018-01-20T10:19:08.915Z,82.20
2018-01-20T10:20:08.982Z,82.40
2018-01-20T10:21:06.458Z,82.30
2018-01-20T10:22:06.185Z,82.30
2018-01-20T10:23:05.504Z,82.10
2018-01-20T10:24:05.528Z,81.40
2018-01-20T10:25:05.606Z,81.20
2018-01-20T10:26:05.767Z,80.20
2018-01-20T10:27:06.440Z,80.10
2018-01-20T10:28:06.190Z,80.20
2018-01-20T10:29:10.756Z,79.70
2018-01-20T10:30:06.197Z,79.70
2018-01-20T10:31:06.010Z,79.80
2018-01-20T10:32:06.493Z,80.00
2018-01-20T10:33:08.858Z,79.90
2018-01-20T10:34:08.825Z,80.00
2018-01-20T10:35:11.285Z,80.00
2018-01-20T10:36:08.220Z,80.10
2018-01-20T10:37:08.149Z,80.20
2018-01-20T10:38:05.789Z,80.30
2018-01-20T10:39:08.736Z,80.10
2018-01-20T10:40:06.283Z,80.10
2018-01-20T10:41:05.844Z,79.60
2018-01-20T10:42:06.315Z,79.30
2018-01-20T10:43:08.847Z,78.40
2018-01-20T10:44:08.742Z,78.30
2018-01-20T10:45:06.093Z,78.20
2018-01-20T10:46:05.847Z,78.00
2018-01-20T10:47:11.346Z,77.90
2018-01-20T10:48:10.888Z,77.80
2018-01-20T10:49:06.411Z,77.80
2018-01-20T10:50:11.052Z,78.10
2018-01-20T10:51:11.390Z,78.00
2018-01-20T10:52:05.665Z,78.00
2018-01-20T10:53:05.578Z,77.90
2018-01-20T10:54:05.611Z,77.60
2018-01-20T10:55:06.131Z,77.10
2018-01-20T10:56:05.676Z,77.40
2018-01-20T10:57:06.101Z,77.30
2018-01-20T10:58:06.257Z,77.30
2018-01-20T10:59:06.815Z,77.10
2018-01-20T11:00:06.381Z,76.90
2018-01-20T11:01:05.852Z,76.40
2018-01-20T11:02:06.706Z,76.40
2018-01-20T11:03:11.133Z,76.10
2018-01-20T11:04:05.550Z,76.10
2018-01-20T11:05:06.576Z,75.80
2018-01-20T11:06:11.154Z,75.60
2018-01-20T11:07:05.926Z,75.50
2018-01-20T11:08:10.598Z,75.50
2018-01-20T11:09:05.714Z,75.50
2018-01-20T11:10:08.115Z,75.40
2018-01-20T11:11:05.462Z,75.40
2018-01-20T11:12:06.403Z,75.60
2018-01-20T11:13:05.925Z,75.90
2018-01-20T11:14:13.425Z,75.80
2018-01-20T11:15:05.885Z,75.70
2018-01-20T11:16:06.386Z,75.70
2018-01-20T11:17:05.868Z,75.70
2018-01-20T11:18:10.517Z,75.50
2018-01-20T11:19:06.788Z,75.40
2018-01-20T11:20:06.500Z,75.00
2018-01-20T11:21:06.178Z,74.80
2018-01-20T11:22:05.745Z,74.70
2018-01-20T11:23:10.524Z,74.20
2018-01-20T11:24:11.069Z,73.80
2018-01-20T11:25:08.038Z,73.70
2018-01-20T11:26:08.941Z,73.60
2018-01-20T11:27:08.854Z,73.70
2018-01-20T11:28:06.545Z,73.70
2018-01-20T11:29:06.264Z,73.80
2018-01-20T11:30:05.772Z,73.50
2018-01-20T11:31:11.386Z,73.50
2018-01-20T11:32:08.282Z,72.50
2018-01-20T11:33:05.727Z,72.50
2018-01-20T11:34:10.726Z,72.90
2018-01-20T11:35:08.613Z,73.10
2018-01-20T11:36:07.049Z,73.10
2018-01-20T11:37:05.607Z,73.20
2018-01-20T11:38:05.482Z,73.50
2018-01-20T11:39:06.465Z,73.40
2018-01-20T11:40:08.501Z,73.10
2018-01-20T11:41:05.892Z,73.10
2018-01-20T11:42:08.955Z,73.00
2018-01-20T11:43:11.341Z,73.20
2018-01-20T11:44:05.890Z,73.20
2018-01-20T11:45:06.536Z,73.30
2018-01-20T11:46:06.103Z,73.30
2018-01-20T11:47:08.236Z,73.70
2018-01-20T11:48:05.702Z,73.80
2018-01-20T11:49:06.499Z,73.90
2018-01-20T11:50:11.139Z,74.10
2018-01-20T11:51:06.403Z,74.10
2018-01-20T11:52:11.081Z,73.90
2018-01-20T11:53:05.470Z,73.80
2018-01-20T11:54:06.365Z,73.90
2018-01-20T11:55:08.433Z,74.10
2018-01-20T11:56:05.786Z,74.20
2018-01-20T11:57:05.772Z,74.30
2018-01-20T11:58:05.836Z,74.30
2018-01-20T11:59:05.581Z,74.40
2018-01-20T12:00:06.270Z,74.30
2018-01-20T12:01:08.402Z,74.50
2018-01-20T12:02:10.795Z,74.50
2018-01-20T12:03:08.565Z,74.70
2018-01-20T12:04:11.035Z,74.90
2018-01-20T12:05:09.055Z,74.90
2018-01-20T12:06:06.540Z,74.90
2018-01-20T12:07:08.515Z,74.90
2018-01-20T12:08:05.849Z,74.90
2018-01-20T12:09:08.974Z,75.10
2018-01-20T12:10:08.987Z,75.20
2018-01-20T12:11:08.864Z,75.20
2018-01-20T12:12:06.367Z,75.20
2018-01-20T12:13:08.388Z,75.40
2018-01-20T12:14:05.657Z,75.40
2018-01-20T12:15:06.547Z,75.50
2018-01-20T12:16:08.581Z,75.10
2018-01-20T12:17:06.080Z,75.00
2018-01-20T12:18:06.085Z,74.90
2018-01-20T12:19:10.627Z,74.80
2018-01-20T12:20:06.080Z,74.80
2018-01-20T12:21:05.641Z,74.50
2018-01-20T12:22:06.157Z,74.50
2018-01-20T12:23:05.744Z,74.50
2018-01-20T12:24:08.032Z,74.80
2018-01-20T12:25:09.045Z,74.90
2018-01-20T12:26:08.926Z,75.00
2018-01-20T12:27:06.599Z,75.00
2018-01-20T12:28:08.639Z,74.90
2018-01-20T12:29:08.578Z,75.00
2018-01-20T12:30:10.951Z,75.00
2018-01-20T12:31:06.371Z,75.00
2018-01-20T12:32:06.894Z,75.10
2018-01-20T12:33:06.621Z,75.20
2018-01-20T12:34:08.733Z,75.20
2018-01-20T12:35:08.613Z,75.30
2018-01-20T12:36:06.008Z,75.30
2018-01-20T12:37:05.614Z,75.50
2018-01-20T12:38:06.178Z,75.30
2018-01-20T12:39:05.915Z,75.50
2018-01-20T12:40:08.353Z,75.50
2018-01-20T12:41:08.405Z,75.50
2018-01-20T12:42:08.274Z,75.70
2018-01-20T12:43:08.242Z,75.70
2018-01-20T12:44:08.056Z,75.70
2018-01-20T12:45:06.458Z,75.70
2018-01-20T12:46:08.372Z,76.00
2018-01-20T12:47:05.738Z,76.00
2018-01-20T12:48:05.783Z,75.90
2018-01-20T12:49:05.515Z,76.00
2018-01-20T12:50:05.507Z,76.00
2018-01-20T12:51:05.702Z,76.00
2018-01-20T12:52:08.745Z,75.90
2018-01-20T12:53:15.859Z,76.00
2018-01-20T12:54:06.260Z,76.00
2018-01-20T12:55:05.961Z,76.00
2018-01-20T12:56:05.639Z,76.10
2018-01-20T12:57:05.474Z,76.10